Share

Kennedy, AL

9:17 AM CDT on April 24, 2014 (GMT -0500)
Shiloh (KMSSTEEN2) Elev 276 ft | 33.62 °N, 88.33 °W | Change Station

Current weather conditions updated 8 minutes ago

Haze
Haze
67.1 °F
Feels Like 67.1 °F
N
4.2
Wind Variable Wind from ENE
Sunrise 6:10 AM
Sunset 7:29 PM
Moon Waning Crescent

Today is forecast to be nearly the same temperature as yesterday. Thunderstorms tonight.

Pressure 29.99 in
Visibility 6.0 miles
Clouds Clear
Dew Point 51 °F
Humidity 56%
Rainfall 0.00 in
Snow Depth Not available.
UV 4 out of 16
Pollen 8.10 out of 12
Air Quality Not available.
Flu Activity Sporadic
METAR KCBM 241358Z AUTO 13005KT 6SM HZ CLR 17/08 A2998 RMK AO2 SLP154 T01650083

More Conditions Fewer Conditions

Pressure 29.99 in
Visibility 6.0 miles
Clouds Clear
Dew Point 51 °F
Humidity 56%
Rainfall 0.00 in
Snow Depth Not available.
UV 4 out of 16
Pollen 8.10 out of 12
Air Quality Not available.
Flu Activity Sporadic
METAR KCBM 241358Z AUTO 13005KT 6SM HZ CLR 17/08 A2998 RMK AO2 SLP154 T01650083

More Conditions Fewer Conditions

10-Day Weather Forecast

Almanac

Astronomy

Apr. 24, 2014 Rise Set
Actual Time 6:10 AM CDT 7:29 PM CDT
Civil Twilight 5:44 AM CDT 7:55 PM CDT
Nautical Twilight 5:13 AM CDT 8:26 PM CDT
Astronomical Twilight 4:41 AM CDT 8:59 PM CDT
Moon 3:06 AM CDT 2:58 PM CDT
Length of Visible Light 14h 11m
Length of Day
13h 18m
Tomorrow will be 1m 52s longer.
Waning Crescent, 25% of the Moon is Illuminated
Today
Waning Crescent
Apr 29
New
May 6
First Quarter
May 14
Full
May 21
Last Quarter

Today's Extremes

State Highs State Lows

Community

  • Clouds mov'n in
    Clouds mov'n in
  • Stacked
    Stacked
  • clouds approaching Red Sox Nation
    clouds approaching Red Sox Nation
  • Balance
    Balance
  • Citysky
    Citysky

WunderPhotos

Upload Photos

1,704,619 photos uploaded!

WunderBlogs® & News

Nearby

Snow Depth

Station Depth Elevation
No new snow has been reported.

Coastal Water Temperatures

Place Temperature
No Stations Reporting

Earthquake Activity

City Distance Mag. Time & Date
No recent earthquake activity has been reported nearby.
Minimum magnitude displayed is 2.5.

Nearby Weather Stations

Station Location Temp. Windchill Dew Point Humidity Wind Precip. Elev Updated Type
MAP WINFIELD AL , Winfield, AL 46 °F 46 °F 42 °F 86% NNE  at  2 mph 0.00 in / hr 396 ft 7:00 AM CDT MADIS
Shiloh, Steens, MS 67.1 °F - 51 °F 56% ENE  at  4.2 mph - / hr 276 ft 9:09 AM CDT Normal
Lawrence St., Caledonia, MS 69.3 °F - 50 °F 50% ENE  at  1.1 mph - / hr 295 ft 9:15 AM CDT Normal
Bethany, Buhl, AL 68.2 °F - 52 °F 57% North  at  0.0 mph 0.00 in / hr 367 ft 9:15 AM CDT Normal

Show More Stations Show Fewer Stations

What do you think?

We're not finished. Please let us know what you like, what you don't like, and what you are still missing.